sensor_id;sensor_type;location;lat;lon;timestamp;P1;durP1;ratioP1;P2;durP2;ratioP2
41275;SDS011;27010;47.718;12.912;2023-05-07T00:02:30;2.83;;;2.07;;
41275;SDS011;27010;47.718;12.912;2023-05-07T00:05:32;3.93;;;2.10;;
41275;SDS011;27010;47.718;12.912;2023-05-07T00:08:34;2.53;;;1.90;;
41275;SDS011;27010;47.718;12.912;2023-05-07T00:11:36;3.17;;;2.03;;
41275;SDS011;27010;47.718;12.912;2023-05-07T00:14:39;4.80;;;2.07;;
41275;SDS011;27010;47.718;12.912;2023-05-07T00:17:41;3.93;;;3.43;;
41275;SDS011;27010;47.718;12.912;2023-05-07T00:20:43;3.27;;;2.00;;
41275;SDS011;27010;47.718;12.912;2023-05-07T00:23:45;3.13;;;2.50;;
41275;SDS011;27010;47.718;12.912;2023-05-07T00:26:47;5.87;;;1.97;;
41275;SDS011;27010;47.718;12.912;2023-05-07T00:29:49;6.60;;;2.97;;
41275;SDS011;27010;47.718;12.912;2023-05-07T00:32:51;4.33;;;2.77;;
41275;SDS011;27010;47.718;12.912;2023-05-07T00:35:53;3.47;;;2.67;;
41275;SDS011;27010;47.718;12.912;2023-05-07T00:38:59;6.90;;;2.50;;
41275;SDS011;27010;47.718;12.912;2023-05-07T00:42:01;2.80;;;2.57;;
41275;SDS011;27010;47.718;12.912;2023-05-07T00:45:04;4.27;;;2.30;;
41275;SDS011;27010;47.718;12.912;2023-05-07T00:48:06;3.43;;;2.40;;
41275;SDS011;27010;47.718;12.912;2023-05-07T00:51:09;2.60;;;2.40;;
41275;SDS011;27010;47.718;12.912;2023-05-07T00:54:14;2.60;;;2.40;;
41275;SDS011;27010;47.718;12.912;2023-05-07T00:57:16;3.00;;;2.50;;
41275;SDS011;27010;47.718;12.912;2023-05-07T01:00:18;2.27;;;2.07;;
41275;SDS011;27010;47.718;12.912;2023-05-07T01:03:20;5.67;;;2.50;;
41275;SDS011;27010;47.718;12.912;2023-05-07T01:06:23;4.40;;;3.00;;
41275;SDS011;27010;47.718;12.912;2023-05-07T01:09:26;3.27;;;2.63;;
41275;SDS011;27010;47.718;12.912;2023-05-07T01:12:29;4.07;;;2.37;;
41275;SDS011;27010;47.718;12.912;2023-05-07T01:15:32;4.43;;;2.50;;
41275;SDS011;27010;47.718;12.912;2023-05-07T01:18:34;3.57;;;2.33;;
41275;SDS011;27010;47.718;12.912;2023-05-07T01:21:36;6.50;;;2.63;;
41275;SDS011;27010;47.718;12.912;2023-05-07T01:24:39;3.17;;;2.30;;
41275;SDS011;27010;47.718;12.912;2023-05-07T01:27:41;3.53;;;2.20;;
41275;SDS011;27010;47.718;12.912;2023-05-07T01:30:44;2.77;;;2.20;;
41275;SDS011;27010;47.718;12.912;2023-05-07T01:33:49;2.63;;;2.30;;
41275;SDS011;27010;47.718;12.912;2023-05-07T01:36:52;3.73;;;2.50;;
41275;SDS011;27010;47.718;12.912;2023-05-07T01:39:55;3.77;;;2.60;;
41275;SDS011;27010;47.718;12.912;2023-05-07T01:42:57;5.80;;;2.87;;
41275;SDS011;27010;47.718;12.912;2023-05-07T01:46:01;3.93;;;3.00;;
41275;SDS011;27010;47.718;12.912;2023-05-07T01:49:03;3.73;;;2.67;;
41275;SDS011;27010;47.718;12.912;2023-05-07T01:52:05;5.83;;;2.60;;
41275;SDS011;27010;47.718;12.912;2023-05-07T01:55:07;3.67;;;2.80;;
41275;SDS011;27010;47.718;12.912;2023-05-07T01:58:10;2.53;;;2.17;;
41275;SDS011;27010;47.718;12.912;2023-05-07T02:01:12;3.97;;;2.33;;
41275;SDS011;27010;47.718;12.912;2023-05-07T02:04:15;3.57;;;3.03;;
41275;SDS011;27010;47.718;12.912;2023-05-07T02:07:17;3.60;;;2.40;;
41275;SDS011;27010;47.718;12.912;2023-05-07T02:10:19;2.40;;;2.20;;
41275;SDS011;27010;47.718;12.912;2023-05-07T02:13:21;2.60;;;2.30;;
41275;SDS011;27010;47.718;12.912;2023-05-07T02:16:24;3.50;;;2.50;;
41275;SDS011;27010;47.718;12.912;2023-05-07T02:19:26;5.87;;;1.90;;
41275;SDS011;27010;47.718;12.912;2023-05-07T02:22:28;2.67;;;2.00;;
41275;SDS011;27010;47.718;12.912;2023-05-07T02:25:30;2.67;;;2.07;;
41275;SDS011;27010;47.718;12.912;2023-05-07T02:28:32;3.67;;;2.17;;
41275;SDS011;27010;47.718;12.912;2023-05-07T02:31:36;2.77;;;2.30;;
41275;SDS011;27010;47.718;12.912;2023-05-07T02:34:38;2.47;;;2.27;;
41275;SDS011;27010;47.718;12.912;2023-05-07T02:37:41;2.57;;;2.20;;
41275;SDS011;27010;47.718;12.912;2023-05-07T02:40:44;4.57;;;2.40;;
41275;SDS011;27010;47.718;12.912;2023-05-07T02:43:46;2.83;;;2.20;;
41275;SDS011;27010;47.718;12.912;2023-05-07T02:46:48;2.50;;;2.30;;
41275;SDS011;27010;47.718;12.912;2023-05-07T02:49:50;5.50;;;2.87;;
41275;SDS011;27010;47.718;12.912;2023-05-07T02:52:52;4.17;;;2.20;;
41275;SDS011;27010;47.718;12.912;2023-05-07T02:55:54;2.67;;;2.37;;
41275;SDS011;27010;47.718;12.912;2023-05-07T02:58:57;4.00;;;2.80;;
41275;SDS011;27010;47.718;12.912;2023-05-07T03:02:00;4.93;;;2.20;;
41275;SDS011;27010;47.718;12.912;2023-05-07T03:05:02;3.50;;;2.30;;
41275;SDS011;27010;47.718;12.912;2023-05-07T03:08:05;2.77;;;2.47;;
41275;SDS011;27010;47.718;12.912;2023-05-07T03:11:07;3.63;;;2.67;;
41275;SDS011;27010;47.718;12.912;2023-05-07T03:14:08;2.37;;;2.17;;
41275;SDS011;27010;47.718;12.912;2023-05-07T03:17:10;5.03;;;2.27;;
41275;SDS011;27010;47.718;12.912;2023-05-07T03:20:12;4.13;;;2.20;;
41275;SDS011;27010;47.718;12.912;2023-05-07T03:23:15;2.23;;;2.03;;
41275;SDS011;27010;47.718;12.912;2023-05-07T03:26:17;4.37;;;2.50;;
41275;SDS011;27010;47.718;12.912;2023-05-07T03:29:18;3.20;;;2.17;;
41275;SDS011;27010;47.718;12.912;2023-05-07T03:32:21;3.13;;;2.60;;
41275;SDS011;27010;47.718;12.912;2023-05-07T03:35:23;5.23;;;2.00;;
41275;SDS011;27010;47.718;12.912;2023-05-07T03:38:25;5.10;;;2.10;;
41275;SDS011;27010;47.718;12.912;2023-05-07T03:41:27;5.63;;;2.43;;
41275;SDS011;27010;47.718;12.912;2023-05-07T03:44:28;2.17;;;1.97;;
41275;SDS011;27010;47.718;12.912;2023-05-07T03:47:31;4.20;;;2.33;;
41275;SDS011;27010;47.718;12.912;2023-05-07T03:50:33;2.60;;;2.40;;
41275;SDS011;27010;47.718;12.912;2023-05-07T03:53:35;5.67;;;2.40;;
41275;SDS011;27010;47.718;12.912;2023-05-07T03:56:37;4.53;;;2.23;;
41275;SDS011;27010;47.718;12.912;2023-05-07T03:59:39;6.73;;;2.60;;
41275;SDS011;27010;47.718;12.912;2023-05-07T04:02:41;2.90;;;2.47;;
41275;SDS011;27010;47.718;12.912;2023-05-07T04:05:43;4.77;;;2.77;;
41275;SDS011;27010;47.718;12.912;2023-05-07T04:08:46;5.13;;;2.60;;
41275;SDS011;27010;47.718;12.912;2023-05-07T04:11:48;3.17;;;2.47;;
41275;SDS011;27010;47.718;12.912;2023-05-07T04:14:49;2.77;;;2.40;;
41275;SDS011;27010;47.718;12.912;2023-05-07T04:17:52;2.63;;;2.10;;
41275;SDS011;27010;47.718;12.912;2023-05-07T04:20:54;3.60;;;2.30;;
41275;SDS011;27010;47.718;12.912;2023-05-07T04:23:56;2.50;;;2.27;;
41275;SDS011;27010;47.718;12.912;2023-05-07T04:26:58;2.77;;;2.10;;
41275;SDS011;27010;47.718;12.912;2023-05-07T04:30:02;4.40;;;2.20;;
41275;SDS011;27010;47.718;12.912;2023-05-07T04:33:05;5.53;;;3.27;;
41275;SDS011;27010;47.718;12.912;2023-05-07T04:36:08;3.93;;;2.53;;
41275;SDS011;27010;47.718;12.912;2023-05-07T04:39:10;5.67;;;2.53;;
41275;SDS011;27010;47.718;12.912;2023-05-07T04:42:18;2.93;;;2.20;;
41275;SDS011;27010;47.718;12.912;2023-05-07T04:45:20;2.77;;;2.00;;
41275;SDS011;27010;47.718;12.912;2023-05-07T04:48:22;3.27;;;2.30;;
41275;SDS011;27010;47.718;12.912;2023-05-07T04:51:24;3.87;;;2.00;;
41275;SDS011;27010;47.718;12.912;2023-05-07T04:54:26;5.10;;;3.40;;
41275;SDS011;27010;47.718;12.912;2023-05-07T04:57:28;5.37;;;2.70;;
41275;SDS011;27010;47.718;12.912;2023-05-07T05:00:30;3.73;;;2.53;;
41275;SDS011;27010;47.718;12.912;2023-05-07T05:03:33;3.90;;;2.17;;
41275;SDS011;27010;47.718;12.912;2023-05-07T05:06:35;4.00;;;2.07;;
41275;SDS011;27010;47.718;12.912;2023-05-07T05:09:38;2.97;;;2.17;;
41275;SDS011;27010;47.718;12.912;2023-05-07T05:12:40;2.90;;;1.87;;
41275;SDS011;27010;47.718;12.912;2023-05-07T05:15:42;3.33;;;2.03;;
41275;SDS011;27010;47.718;12.912;2023-05-07T05:18:44;4.60;;;2.00;;
41275;SDS011;27010;47.718;12.912;2023-05-07T05:21:46;3.90;;;2.07;;
41275;SDS011;27010;47.718;12.912;2023-05-07T05:24:48;3.43;;;2.00;;
41275;SDS011;27010;47.718;12.912;2023-05-07T05:27:51;2.57;;;2.17;;
41275;SDS011;27010;47.718;12.912;2023-05-07T05:30:53;4.03;;;1.63;;
41275;SDS011;27010;47.718;12.912;2023-05-07T05:33:55;2.10;;;1.73;;
41275;SDS011;27010;47.718;12.912;2023-05-07T05:36:57;2.57;;;1.63;;
41275;SDS011;27010;47.718;12.912;2023-05-07T05:40:01;6.43;;;3.43;;
41275;SDS011;27010;47.718;12.912;2023-05-07T05:43:03;1.40;;;1.30;;
41275;SDS011;27010;47.718;12.912;2023-05-07T05:46:05;2.90;;;1.93;;
41275;SDS011;27010;47.718;12.912;2023-05-07T05:49:07;3.53;;;1.90;;
41275;SDS011;27010;47.718;12.912;2023-05-07T05:52:11;2.03;;;1.70;;
41275;SDS011;27010;47.718;12.912;2023-05-07T05:55:13;1.40;;;1.30;;
41275;SDS011;27010;47.718;12.912;2023-05-07T05:58:15;4.67;;;1.70;;
41275;SDS011;27010;47.718;12.912;2023-05-07T06:01:18;1.97;;;1.77;;
41275;SDS011;27010;47.718;12.912;2023-05-07T06:04:20;6.17;;;1.90;;
41275;SDS011;27010;47.718;12.912;2023-05-07T06:07:22;3.70;;;1.97;;
41275;SDS011;27010;47.718;12.912;2023-05-07T06:10:24;3.03;;;1.70;;
41275;SDS011;27010;47.718;12.912;2023-05-07T06:13:27;2.43;;;2.00;;
41275;SDS011;27010;47.718;12.912;2023-05-07T06:16:31;4.20;;;1.80;;
41275;SDS011;27010;47.718;12.912;2023-05-07T06:19:33;1.50;;;1.40;;
41275;SDS011;27010;47.718;12.912;2023-05-07T06:22:35;1.80;;;1.67;;
41275;SDS011;27010;47.718;12.912;2023-05-07T06:25:37;2.23;;;1.77;;
41275;SDS011;27010;47.718;12.912;2023-05-07T06:28:39;3.03;;;2.33;;
41275;SDS011;27010;47.718;12.912;2023-05-07T06:31:41;3.20;;;1.43;;
41275;SDS011;27010;47.718;12.912;2023-05-07T06:34:43;2.40;;;1.63;;
41275;SDS011;27010;47.718;12.912;2023-05-07T06:37:45;3.83;;;2.10;;
41275;SDS011;27010;47.718;12.912;2023-05-07T06:40:48;5.33;;;1.90;;
41275;SDS011;27010;47.718;12.912;2023-05-07T06:43:51;2.50;;;1.77;;
41275;SDS011;27010;47.718;12.912;2023-05-07T06:46:53;3.50;;;1.60;;
41275;SDS011;27010;47.718;12.912;2023-05-07T06:49:54;4.07;;;1.37;;
41275;SDS011;27010;47.718;12.912;2023-05-07T06:52:57;5.23;;;1.63;;
41275;SDS011;27010;47.718;12.912;2023-05-07T06:55:59;1.70;;;1.43;;
41275;SDS011;27010;47.718;12.912;2023-05-07T06:59:01;2.67;;;1.63;;
41275;SDS011;27010;47.718;12.912;2023-05-07T07:02:04;3.40;;;1.77;;
41275;SDS011;27010;47.718;12.912;2023-05-07T07:05:06;3.00;;;1.40;;
41275;SDS011;27010;47.718;12.912;2023-05-07T07:08:09;1.27;;;1.10;;
41275;SDS011;27010;47.718;12.912;2023-05-07T07:11:11;1.80;;;1.33;;
41275;SDS011;27010;47.718;12.912;2023-05-07T07:14:13;1.83;;;1.37;;
41275;SDS011;27010;47.718;12.912;2023-05-07T07:17:15;6.47;;;2.00;;
41275;SDS011;27010;47.718;12.912;2023-05-07T07:20:17;2.77;;;1.40;;
41275;SDS011;27010;47.718;12.912;2023-05-07T07:23:20;3.83;;;1.50;;
41275;SDS011;27010;47.718;12.912;2023-05-07T07:26:22;3.10;;;1.20;;
41275;SDS011;27010;47.718;12.912;2023-05-07T07:29:24;2.40;;;1.50;;
41275;SDS011;27010;47.718;12.912;2023-05-07T07:32:28;1.57;;;1.07;;
41275;SDS011;27010;47.718;12.912;2023-05-07T07:35:30;1.90;;;1.00;;
41275;SDS011;27010;47.718;12.912;2023-05-07T07:38:32;2.30;;;1.23;;
41275;SDS011;27010;47.718;12.912;2023-05-07T07:41:34;1.33;;;1.10;;
41275;SDS011;27010;47.718;12.912;2023-05-07T07:44:36;2.67;;;1.43;;
41275;SDS011;27010;47.718;12.912;2023-05-07T07:47:39;1.38;;;1.20;;
41275;SDS011;27010;47.718;12.912;2023-05-07T07:50:42;1.35;;;1.00;;
41275;SDS011;27010;47.718;12.912;2023-05-07T07:53:46;1.50;;;0.98;;
41275;SDS011;27010;47.718;12.912;2023-05-07T07:56:48;1.85;;;1.00;;
41275;SDS011;27010;47.718;12.912;2023-05-07T07:59:50;1.88;;;1.30;;
41275;SDS011;27010;47.718;12.912;2023-05-07T08:02:52;1.25;;;0.90;;
41275;SDS011;27010;47.718;12.912;2023-05-07T08:05:54;2.85;;;1.10;;
41275;SDS011;27010;47.718;12.912;2023-05-07T08:08:56;2.42;;;1.33;;
41275;SDS011;27010;47.718;12.912;2023-05-07T08:11:58;2.95;;;1.02;;
41275;SDS011;27010;47.718;12.912;2023-05-07T08:15:00;1.35;;;1.20;;
41275;SDS011;27010;47.718;12.912;2023-05-07T08:18:02;1.83;;;1.10;;
41275;SDS011;27010;47.718;12.912;2023-05-07T08:21:04;1.60;;;1.27;;
41275;SDS011;27010;47.718;12.912;2023-05-07T08:24:07;1.20;;;1.00;;
41275;SDS011;27010;47.718;12.912;2023-05-07T08:27:09;1.90;;;1.13;;
41275;SDS011;27010;47.718;12.912;2023-05-07T08:30:11;2.38;;;1.38;;
41275;SDS011;27010;47.718;12.912;2023-05-07T08:33:13;5.88;;;1.60;;
41275;SDS011;27010;47.718;12.912;2023-05-07T08:36:15;1.95;;;1.30;;
41275;SDS011;27010;47.718;12.912;2023-05-07T08:39:17;3.55;;;1.73;;
41275;SDS011;27010;47.718;12.912;2023-05-07T08:42:20;5.20;;;1.35;;
41275;SDS011;27010;47.718;12.912;2023-05-07T08:45:23;2.78;;;1.23;;
41275;SDS011;27010;47.718;12.912;2023-05-07T08:48:25;3.60;;;1.50;;
41275;SDS011;27010;47.718;12.912;2023-05-07T08:51:27;1.60;;;1.30;;
41275;SDS011;27010;47.718;12.912;2023-05-07T08:54:30;1.92;;;1.20;;
41275;SDS011;27010;47.718;12.912;2023-05-07T08:57:32;5.32;;;1.30;;
41275;SDS011;27010;47.718;12.912;2023-05-07T09:00:36;2.03;;;1.15;;
41275;SDS011;27010;47.718;12.912;2023-05-07T09:03:38;2.47;;;1.00;;
41275;SDS011;27010;47.718;12.912;2023-05-07T09:06:40;1.75;;;1.17;;
41275;SDS011;27010;47.718;12.912;2023-05-07T09:09:43;1.45;;;1.05;;
41275;SDS011;27010;47.718;12.912;2023-05-07T09:12:46;2.72;;;1.30;;
41275;SDS011;27010;47.718;12.912;2023-05-07T09:15:48;1.60;;;1.10;;
41275;SDS011;27010;47.718;12.912;2023-05-07T09:18:51;2.70;;;1.33;;
41275;SDS011;27010;47.718;12.912;2023-05-07T09:22:00;2.50;;;1.20;;
41275;SDS011;27010;47.718;12.912;2023-05-07T09:25:06;1.77;;;1.10;;
41275;SDS011;27010;47.718;12.912;2023-05-07T09:28:09;1.73;;;0.95;;
41275;SDS011;27010;47.718;12.912;2023-05-07T09:31:12;3.75;;;1.10;;
41275;SDS011;27010;47.718;12.912;2023-05-07T09:34:14;2.85;;;1.38;;
41275;SDS011;27010;47.718;12.912;2023-05-07T09:37:16;2.78;;;1.00;;
41275;SDS011;27010;47.718;12.912;2023-05-07T09:40:25;3.00;;;1.10;;
41275;SDS011;27010;47.718;12.912;2023-05-07T09:43:31;1.50;;;1.33;;
41275;SDS011;27010;47.718;12.912;2023-05-07T09:46:37;1.95;;;1.38;;
41275;SDS011;27010;47.718;12.912;2023-05-07T09:49:40;5.40;;;1.50;;
41275;SDS011;27010;47.718;12.912;2023-05-07T09:52:43;2.20;;;2.00;;
41275;SDS011;27010;47.718;12.912;2023-05-07T09:55:46;3.13;;;1.77;;
41275;SDS011;27010;47.718;12.912;2023-05-07T09:58:48;2.33;;;1.60;;
41275;SDS011;27010;47.718;12.912;2023-05-07T10:01:51;2.13;;;1.40;;
41275;SDS011;27010;47.718;12.912;2023-05-07T10:04:54;1.73;;;1.48;;
41275;SDS011;27010;47.718;12.912;2023-05-07T10:07:56;3.13;;;1.60;;
41275;SDS011;27010;47.718;12.912;2023-05-07T10:10:59;1.85;;;1.45;;
41275;SDS011;27010;47.718;12.912;2023-05-07T10:14:01;4.40;;;1.15;;
41275;SDS011;27010;47.718;12.912;2023-05-07T10:17:05;5.55;;;1.63;;
41275;SDS011;27010;47.718;12.912;2023-05-07T10:20:07;1.80;;;1.38;;
41275;SDS011;27010;47.718;12.912;2023-05-07T10:23:10;2.47;;;1.40;;
41275;SDS011;27010;47.718;12.912;2023-05-07T10:26:14;2.38;;;1.20;;
41275;SDS011;27010;47.718;12.912;2023-05-07T10:35:40;2.28;;;1.60;;
41275;SDS011;27010;47.718;12.912;2023-05-07T10:38:43;2.30;;;1.08;;
41275;SDS011;27010;47.718;12.912;2023-05-07T10:41:45;1.98;;;1.40;;
41275;SDS011;27010;47.718;12.912;2023-05-07T10:44:47;1.98;;;1.20;;
41275;SDS011;27010;47.718;12.912;2023-05-07T10:51:28;1.77;;;1.50;;
41275;SDS011;27010;47.718;12.912;2023-05-07T10:54:32;2.75;;;1.33;;
41275;SDS011;27010;47.718;12.912;2023-05-07T10:57:38;1.73;;;1.40;;
41275;SDS011;27010;47.718;12.912;2023-05-07T11:00:41;2.72;;;1.30;;
41275;SDS011;27010;47.718;12.912;2023-05-07T11:13:55;3.72;;;1.90;;
41275;SDS011;27010;47.718;12.912;2023-05-07T11:17:02;2.88;;;1.90;;
41275;SDS011;27010;47.718;12.912;2023-05-07T11:20:04;2.80;;;1.67;;
41275;SDS011;27010;47.718;12.912;2023-05-07T11:23:07;5.82;;;2.25;;
41275;SDS011;27010;47.718;12.912;2023-05-07T11:26:10;3.33;;;2.08;;
41275;SDS011;27010;47.718;12.912;2023-05-07T11:29:16;3.08;;;2.13;;
41275;SDS011;27010;47.718;12.912;2023-05-07T11:32:23;4.13;;;1.98;;
41275;SDS011;27010;47.718;12.912;2023-05-07T11:35:26;4.30;;;2.92;;
41275;SDS011;27010;47.718;12.912;2023-05-07T11:38:28;5.65;;;2.20;;
41275;SDS011;27010;47.718;12.912;2023-05-07T11:41:35;3.35;;;2.50;;
41275;SDS011;27010;47.718;12.912;2023-05-07T11:44:44;2.90;;;2.47;;
41275;SDS011;27010;47.718;12.912;2023-05-07T11:47:47;3.70;;;2.15;;
41275;SDS011;27010;47.718;12.912;2023-05-07T11:50:53;4.05;;;2.30;;
41275;SDS011;27010;47.718;12.912;2023-05-07T11:54:03;2.58;;;2.13;;
41275;SDS011;27010;47.718;12.912;2023-05-07T11:57:05;5.38;;;2.40;;
41275;SDS011;27010;47.718;12.912;2023-05-07T12:00:09;2.63;;;1.85;;
41275;SDS011;27010;47.718;12.912;2023-05-07T12:03:12;2.90;;;1.77;;
41275;SDS011;27010;47.718;12.912;2023-05-07T12:06:15;2.17;;;1.80;;
41275;SDS011;27010;47.718;12.912;2023-05-07T12:09:17;2.03;;;1.80;;
41275;SDS011;27010;47.718;12.912;2023-05-07T12:12:20;1.98;;;1.85;;
41275;SDS011;27010;47.718;12.912;2023-05-07T12:15:22;3.30;;;2.25;;
41275;SDS011;27010;47.718;12.912;2023-05-07T12:18:24;2.75;;;2.30;;
41275;SDS011;27010;47.718;12.912;2023-05-07T12:21:27;3.50;;;2.47;;
41275;SDS011;27010;47.718;12.912;2023-05-07T12:24:30;3.60;;;1.98;;
41275;SDS011;27010;47.718;12.912;2023-05-07T12:27:51;3.90;;;1.77;;
41275;SDS011;27010;47.718;12.912;2023-05-07T12:30:53;3.10;;;2.25;;
41275;SDS011;27010;47.718;12.912;2023-05-07T12:33:56;1.77;;;1.63;;
41275;SDS011;27010;47.718;12.912;2023-05-07T12:37:01;1.98;;;1.55;;
41275;SDS011;27010;47.718;12.912;2023-05-07T12:40:05;4.00;;;1.80;;
41275;SDS011;27010;47.718;12.912;2023-05-07T12:43:18;2.50;;;1.75;;
41275;SDS011;27010;47.718;12.912;2023-05-07T12:46:25;3.50;;;1.92;;
41275;SDS011;27010;47.718;12.912;2023-05-07T12:49:27;2.58;;;1.52;;
41275;SDS011;27010;47.718;12.912;2023-05-07T12:52:29;3.00;;;1.15;;
41275;SDS011;27010;47.718;12.912;2023-05-07T12:55:43;1.30;;;1.20;;
41275;SDS011;27010;47.718;12.912;2023-05-07T12:58:46;1.48;;;1.38;;
41275;SDS011;27010;47.718;12.912;2023-05-07T13:01:50;3.15;;;1.35;;
41275;SDS011;27010;47.718;12.912;2023-05-07T13:04:52;2.25;;;1.60;;
41275;SDS011;27010;47.718;12.912;2023-05-07T13:07:55;1.30;;;1.20;;
41275;SDS011;27010;47.718;12.912;2023-05-07T13:10:57;1.92;;;1.40;;
41275;SDS011;27010;47.718;12.912;2023-05-07T13:14:01;2.67;;;1.67;;
41275;SDS011;27010;47.718;12.912;2023-05-07T13:17:04;2.90;;;1.40;;
41275;SDS011;27010;47.718;12.912;2023-05-07T13:20:06;1.48;;;1.20;;
41275;SDS011;27010;47.718;12.912;2023-05-07T13:23:09;2.10;;;1.30;;
41275;SDS011;27010;47.718;12.912;2023-05-07T13:26:12;2.30;;;1.60;;
41275;SDS011;27010;47.718;12.912;2023-05-07T13:29:27;1.80;;;1.40;;
41275;SDS011;27010;47.718;12.912;2023-05-07T13:32:31;3.58;;;1.30;;
41275;SDS011;27010;47.718;12.912;2023-05-07T13:35:34;2.83;;;1.33;;
41275;SDS011;27010;47.718;12.912;2023-05-07T13:38:36;2.05;;;1.23;;
41275;SDS011;27010;47.718;12.912;2023-05-07T13:41:38;1.40;;;1.30;;
41275;SDS011;27010;47.718;12.912;2023-05-07T13:44:40;1.83;;;1.23;;
41275;SDS011;27010;47.718;12.912;2023-05-07T13:47:42;2.08;;;1.30;;
41275;SDS011;27010;47.718;12.912;2023-05-07T13:50:44;6.63;;;1.88;;
41275;SDS011;27010;47.718;12.912;2023-05-07T13:53:46;1.73;;;1.30;;
41275;SDS011;27010;47.718;12.912;2023-05-07T13:56:48;2.00;;;1.35;;
41275;SDS011;27010;47.718;12.912;2023-05-07T13:59:51;3.17;;;1.40;;
41275;SDS011;27010;47.718;12.912;2023-05-07T14:02:53;3.40;;;1.42;;
41275;SDS011;27010;47.718;12.912;2023-05-07T14:05:56;2.22;;;1.33;;
41275;SDS011;27010;47.718;12.912;2023-05-07T14:08:59;2.20;;;1.48;;
41275;SDS011;27010;47.718;12.912;2023-05-07T14:12:02;3.80;;;1.48;;
41275;SDS011;27010;47.718;12.912;2023-05-07T14:15:04;2.20;;;1.20;;
41275;SDS011;27010;47.718;12.912;2023-05-07T14:18:06;2.15;;;1.30;;
41275;SDS011;27010;47.718;12.912;2023-05-07T14:21:08;1.48;;;1.38;;
41275;SDS011;27010;47.718;12.912;2023-05-07T14:24:11;2.17;;;1.15;;
41275;SDS011;27010;47.718;12.912;2023-05-07T14:27:13;3.95;;;1.50;;
41275;SDS011;27010;47.718;12.912;2023-05-07T14:30:15;2.42;;;1.45;;
41275;SDS011;27010;47.718;12.912;2023-05-07T14:33:18;2.17;;;1.40;;
41275;SDS011;27010;47.718;12.912;2023-05-07T14:36:20;2.10;;;1.50;;
41275;SDS011;27010;47.718;12.912;2023-05-07T14:39:23;3.00;;;1.67;;
41275;SDS011;27010;47.718;12.912;2023-05-07T14:42:28;2.60;;;1.40;;
41275;SDS011;27010;47.718;12.912;2023-05-07T14:45:34;1.98;;;1.63;;
41275;SDS011;27010;47.718;12.912;2023-05-07T14:48:38;3.10;;;1.73;;
41275;SDS011;27010;47.718;12.912;2023-05-07T14:51:40;2.85;;;2.03;;
41275;SDS011;27010;47.718;12.912;2023-05-07T14:54:42;3.17;;;1.95;;
41275;SDS011;27010;47.718;12.912;2023-05-07T14:57:44;3.50;;;1.63;;
41275;SDS011;27010;47.718;12.912;2023-05-07T15:00:48;4.03;;;1.52;;
41275;SDS011;27010;47.718;12.912;2023-05-07T15:04:03;3.30;;;2.00;;
41275;SDS011;27010;47.718;12.912;2023-05-07T15:07:06;3.03;;;2.22;;
41275;SDS011;27010;47.718;12.912;2023-05-07T15:10:08;2.88;;;1.90;;
41275;SDS011;27010;47.718;12.912;2023-05-07T15:13:10;2.83;;;1.73;;
41275;SDS011;27010;47.718;12.912;2023-05-07T15:16:16;2.95;;;1.80;;
41275;SDS011;27010;47.718;12.912;2023-05-07T15:19:18;2.25;;;1.60;;
41275;SDS011;27010;47.718;12.912;2023-05-07T15:22:20;1.98;;;1.63;;
41275;SDS011;27010;47.718;12.912;2023-05-07T15:25:23;2.38;;;1.83;;
41275;SDS011;27010;47.718;12.912;2023-05-07T15:28:27;2.50;;;1.77;;
41275;SDS011;27010;47.718;12.912;2023-05-07T15:31:41;2.85;;;2.00;;
41275;SDS011;27010;47.718;12.912;2023-05-07T15:34:44;2.88;;;1.90;;
41275;SDS011;27010;47.718;12.912;2023-05-07T15:37:46;3.45;;;2.15;;
41275;SDS011;27010;47.718;12.912;2023-05-07T15:40:48;3.58;;;1.85;;
41275;SDS011;27010;47.718;12.912;2023-05-07T15:43:51;2.17;;;1.98;;
41275;SDS011;27010;47.718;12.912;2023-05-07T15:46:53;2.90;;;1.90;;
41275;SDS011;27010;47.718;12.912;2023-05-07T15:49:56;1.90;;;1.70;;
41275;SDS011;27010;47.718;12.912;2023-05-07T15:52:58;3.65;;;2.10;;
41275;SDS011;27010;47.718;12.912;2023-05-07T15:56:00;1.73;;;1.63;;
41275;SDS011;27010;47.718;12.912;2023-05-07T15:59:02;2.90;;;1.90;;
41275;SDS011;27010;47.718;12.912;2023-05-07T16:02:04;2.67;;;1.90;;
41275;SDS011;27010;47.718;12.912;2023-05-07T16:05:06;2.80;;;2.00;;
41275;SDS011;27010;47.718;12.912;2023-05-07T16:08:12;3.65;;;2.00;;
41275;SDS011;27010;47.718;12.912;2023-05-07T16:11:14;2.65;;;1.83;;
41275;SDS011;27010;47.718;12.912;2023-05-07T16:14:17;2.85;;;2.40;;
41275;SDS011;27010;47.718;12.912;2023-05-07T16:17:19;4.28;;;2.28;;
41275;SDS011;27010;47.718;12.912;2023-05-07T16:20:21;3.58;;;2.17;;
41275;SDS011;27010;47.718;12.912;2023-05-07T16:23:32;2.53;;;2.30;;
41275;SDS011;27010;47.718;12.912;2023-05-07T16:26:35;2.83;;;1.40;;
41275;SDS011;27010;47.718;12.912;2023-05-07T16:29:37;1.05;;;0.95;;
41275;SDS011;27010;47.718;12.912;2023-05-07T16:32:39;1.30;;;0.95;;
41275;SDS011;27010;47.718;12.912;2023-05-07T16:35:41;1.85;;;1.10;;
41275;SDS011;27010;47.718;12.912;2023-05-07T16:38:48;1.90;;;1.03;;
41275;SDS011;27010;47.718;12.912;2023-05-07T16:41:50;2.07;;;1.10;;
41275;SDS011;27010;47.718;12.912;2023-05-07T16:44:52;1.60;;;1.20;;
41275;SDS011;27010;47.718;12.912;2023-05-07T16:47:57;2.23;;;1.30;;
41275;SDS011;27010;47.718;12.912;2023-05-07T16:51:00;1.30;;;1.10;;
41275;SDS011;27010;47.718;12.912;2023-05-07T16:54:01;1.57;;;0.80;;
41275;SDS011;27010;47.718;12.912;2023-05-07T16:57:04;1.67;;;0.90;;
41275;SDS011;27010;47.718;12.912;2023-05-07T17:00:09;2.87;;;1.13;;
41275;SDS011;27010;47.718;12.912;2023-05-07T17:03:12;1.70;;;0.87;;
41275;SDS011;27010;47.718;12.912;2023-05-07T17:06:15;2.30;;;0.90;;
41275;SDS011;27010;47.718;12.912;2023-05-07T17:09:18;1.77;;;0.90;;
41275;SDS011;27010;47.718;12.912;2023-05-07T17:12:20;1.67;;;0.97;;
41275;SDS011;27010;47.718;12.912;2023-05-07T17:15:24;1.07;;;0.93;;
41275;SDS011;27010;47.718;12.912;2023-05-07T17:18:25;2.20;;;1.27;;
41275;SDS011;27010;47.718;12.912;2023-05-07T17:21:27;1.53;;;1.07;;
41275;SDS011;27010;47.718;12.912;2023-05-07T17:24:29;2.23;;;1.10;;
41275;SDS011;27010;47.718;12.912;2023-05-07T17:27:32;1.90;;;1.10;;
41275;SDS011;27010;47.718;12.912;2023-05-07T17:30:34;2.73;;;1.00;;
41275;SDS011;27010;47.718;12.912;2023-05-07T17:33:36;1.50;;;1.10;;
41275;SDS011;27010;47.718;12.912;2023-05-07T17:36:39;1.80;;;1.37;;
41275;SDS011;27010;47.718;12.912;2023-05-07T17:39:41;3.87;;;1.60;;
41275;SDS011;27010;47.718;12.912;2023-05-07T17:42:43;2.40;;;1.63;;
41275;SDS011;27010;47.718;12.912;2023-05-07T17:45:45;2.10;;;1.00;;
41275;SDS011;27010;47.718;12.912;2023-05-07T17:48:49;1.77;;;1.17;;
41275;SDS011;27010;47.718;12.912;2023-05-07T17:51:52;3.30;;;2.30;;
41275;SDS011;27010;47.718;12.912;2023-05-07T17:54:57;3.20;;;1.10;;
41275;SDS011;27010;47.718;12.912;2023-05-07T17:58:00;3.73;;;1.10;;
41275;SDS011;27010;47.718;12.912;2023-05-07T18:01:03;1.97;;;0.80;;
41275;SDS011;27010;47.718;12.912;2023-05-07T18:04:06;1.33;;;0.90;;
41275;SDS011;27010;47.718;12.912;2023-05-07T18:07:10;1.33;;;0.50;;
41275;SDS011;27010;47.718;12.912;2023-05-07T18:10:12;1.20;;;0.70;;
41275;SDS011;27010;47.718;12.912;2023-05-07T18:13:15;3.93;;;0.80;;
41275;SDS011;27010;47.718;12.912;2023-05-07T18:16:17;1.73;;;0.90;;
41275;SDS011;27010;47.718;12.912;2023-05-07T18:19:20;2.00;;;1.10;;
41275;SDS011;27010;47.718;12.912;2023-05-07T18:22:23;1.83;;;0.80;;
41275;SDS011;27010;47.718;12.912;2023-05-07T18:25:25;3.70;;;0.87;;